createdAt,value
2023-01-10T00:01:53.051Z,2.80
2023-01-10T00:04:21.380Z,2.50
2023-01-10T00:06:51.761Z,2.10
2023-01-10T00:09:20.056Z,2.60
2023-01-10T00:12:05.647Z,2.30
2023-01-10T00:14:35.523Z,1.70
2023-01-10T00:17:03.970Z,1.50
2023-01-10T00:19:32.240Z,1.50
2023-01-10T00:22:13.669Z,1.10
2023-01-10T00:24:43.012Z,2.20
2023-01-10T00:27:16.211Z,1.90
2023-01-10T00:29:46.124Z,1.70
2023-01-10T00:32:14.439Z,1.60
2023-01-10T00:34:42.733Z,2.30
2023-01-10T00:37:12.406Z,2.80
2023-01-10T00:39:40.731Z,2.80
2023-01-10T00:42:27.724Z,2.80
2023-01-10T00:44:56.061Z,2.70
2023-01-10T00:47:24.340Z,3.30
2023-01-10T00:49:52.776Z,3.80
2023-01-10T00:52:22.404Z,3.90
2023-01-10T00:54:50.720Z,4.20
2023-01-10T00:57:19.051Z,5.30
2023-01-10T00:59:47.320Z,4.80
2023-01-10T01:02:15.674Z,4.20
2023-01-10T01:04:44.011Z,4.20
2023-01-10T01:07:12.559Z,3.80
2023-01-10T01:09:56.015Z,4.30
2023-01-10T01:12:24.359Z,4.10
2023-01-10T01:14:52.624Z,4.40
2023-01-10T01:17:20.989Z,3.80
2023-01-10T01:19:49.226Z,3.10
2023-01-10T01:22:17.508Z,3.40
2023-01-10T01:24:47.188Z,3.70
2023-01-10T01:27:15.552Z,4.00
2023-01-10T01:29:44.065Z,4.00
2023-01-10T01:32:12.352Z,3.40
2023-01-10T01:34:41.102Z,4.10
2023-01-10T01:37:09.452Z,4.10
2023-01-10T01:39:37.711Z,4.10
2023-01-10T01:42:08.264Z,4.40
2023-01-10T01:44:39.360Z,4.20
2023-01-10T01:47:09.053Z,3.50
2023-01-10T01:49:40.553Z,3.50
2023-01-10T01:52:11.856Z,3.70
2023-01-10T01:54:40.122Z,4.50
2023-01-10T01:57:13.496Z,3.90
2023-01-10T01:59:42.660Z,4.40
2023-01-10T02:02:13.144Z,4.90
2023-01-10T02:04:45.309Z,5.50
2023-01-10T02:07:13.682Z,5.20
2023-01-10T02:09:45.207Z,5.10
2023-01-10T02:12:15.386Z,5.70
2023-01-10T02:14:44.043Z,5.60
2023-01-10T02:17:12.364Z,5.20
2023-01-10T02:19:48.585Z,4.20
2023-01-10T02:23:18.723Z,3.70
2023-01-10T02:26:12.656Z,3.10
2023-01-10T02:29:27.479Z,4.50
2023-01-10T02:32:18.789Z,4.60
2023-01-10T02:34:58.711Z,5.50
2023-01-10T02:37:33.515Z,5.40
2023-01-10T02:40:05.971Z,6.80
2023-01-10T02:42:40.163Z,6.70
2023-01-10T02:45:11.338Z,6.80
2023-01-10T02:47:41.617Z,6.80
2023-01-10T02:50:30.049Z,6.80
2023-01-10T02:52:59.250Z,7.30
2023-01-10T02:55:32.950Z,7.60
2023-01-10T02:58:05.501Z,7.40
2023-01-10T03:00:40.680Z,7.40
2023-01-10T03:03:33.182Z,7.30
2023-01-10T03:06:12.473Z,7.60
2023-01-10T03:08:43.756Z,7.20
2023-01-10T03:11:15.036Z,7.50
2023-01-10T03:13:47.979Z,7.60
2023-01-10T03:16:19.049Z,7.00
2023-01-10T03:18:52.303Z,7.00
2023-01-10T03:21:21.048Z,7.00
2023-01-10T03:23:49.932Z,7.00
2023-01-10T03:26:18.998Z,7.00
2023-01-10T03:28:50.023Z,7.00
2023-01-10T03:31:20.144Z,6.60
2023-01-10T03:33:49.860Z,7.00
2023-01-10T03:36:23.450Z,7.00
2023-01-10T03:38:54.078Z,6.90
2023-01-10T03:41:30.667Z,7.10
2023-01-10T03:44:22.152Z,8.40
2023-01-10T03:46:53.234Z,8.70
2023-01-10T03:49:23.762Z,8.80
2023-01-10T03:51:52.179Z,9.10
2023-01-10T03:54:20.503Z,9.30
2023-01-10T03:56:50.862Z,9.40
2023-01-10T03:59:19.649Z,9.70
2023-01-10T04:01:48.077Z,9.90
2023-01-10T04:04:16.679Z,10.50
2023-01-10T04:06:46.381Z,11.10
2023-01-10T04:09:14.734Z,11.10
2023-01-10T04:11:42.968Z,11.10
2023-01-10T04:14:11.259Z,11.10
2023-01-10T04:16:39.581Z,11.40
2023-01-10T04:19:07.971Z,11.60
2023-01-10T04:21:36.260Z,12.20
2023-01-10T04:24:06.383Z,12.70
2023-01-10T04:26:34.643Z,12.90
2023-01-10T04:29:02.970Z,13.60
2023-01-10T04:31:31.253Z,13.30
2023-01-10T04:34:00.110Z,13.30
2023-01-10T04:36:28.632Z,13.80
2023-01-10T04:38:56.883Z,13.70
2023-01-10T04:41:26.628Z,13.60
2023-01-10T04:43:55.011Z,14.00
2023-01-10T04:46:23.272Z,13.90
2023-01-10T04:48:51.503Z,13.50
2023-01-10T04:51:19.850Z,13.80
2023-01-10T04:53:48.160Z,13.70
2023-01-10T04:56:19.055Z,13.90
2023-01-10T04:58:48.747Z,13.50
2023-01-10T05:01:18.304Z,13.10
2023-01-10T05:03:48.355Z,13.30
2023-01-10T05:06:16.817Z,13.70
2023-01-10T05:08:45.191Z,13.50
2023-01-10T05:11:13.696Z,14.20
2023-01-10T05:13:42.048Z,14.20
2023-01-10T05:16:12.159Z,14.20
2023-01-10T05:18:40.455Z,14.50
2023-01-10T05:21:10.488Z,13.70
2023-01-10T05:23:39.150Z,14.40
2023-01-10T05:26:08.150Z,13.50
2023-01-10T05:28:36.421Z,13.30
2023-01-10T05:31:06.500Z,13.30
2023-01-10T05:33:36.296Z,12.90
2023-01-10T05:36:04.752Z,13.20
2023-01-10T05:38:33.264Z,13.60
2023-01-10T05:41:01.738Z,13.10
2023-01-10T05:43:30.083Z,12.90
2023-01-10T05:45:58.407Z,13.40
2023-01-10T05:48:26.724Z,13.50
2023-01-10T05:50:57.664Z,13.80
2023-01-10T05:53:26.032Z,13.60
2023-01-10T05:55:56.030Z,13.90
2023-01-10T05:58:24.656Z,14.10
2023-01-10T06:00:53.077Z,14.40
2023-01-10T06:03:21.379Z,14.10
2023-01-10T06:05:49.726Z,13.20
2023-01-10T06:08:20.493Z,13.00
2023-01-10T06:10:48.762Z,13.10
2023-01-10T06:13:17.068Z,13.40
2023-01-10T06:15:45.372Z,13.40
2023-01-10T06:18:13.748Z,13.70
2023-01-10T06:20:42.741Z,13.10
2023-01-10T06:23:11.052Z,13.30
2023-01-10T06:25:41.728Z,13.30
2023-01-10T06:28:10.063Z,13.50
2023-01-10T06:30:38.278Z,13.90
2023-01-10T06:33:07.518Z,13.70
2023-01-10T06:35:35.837Z,14.00
2023-01-10T06:38:04.250Z,13.50
2023-01-10T06:40:32.581Z,13.20
2023-01-10T06:43:02.211Z,13.00
2023-01-10T06:45:30.527Z,12.80
2023-01-10T06:47:58.914Z,12.40
2023-01-10T06:50:27.315Z,12.80
2023-01-10T06:52:58.986Z,12.50
2023-01-10T06:55:27.636Z,12.50
2023-01-10T06:57:59.486Z,12.60
2023-01-10T07:00:30.445Z,12.80
2023-01-10T07:03:00.339Z,13.00
2023-01-10T07:05:29.100Z,12.40
2023-01-10T07:07:58.705Z,12.20
2023-01-10T07:10:26.966Z,12.30
2023-01-10T07:12:56.196Z,12.80
2023-01-10T07:15:24.478Z,12.40
2023-01-10T07:17:54.176Z,11.20
2023-01-10T07:20:22.388Z,11.50
2023-01-10T07:22:55.831Z,11.90
2023-01-10T07:25:24.214Z,11.20
2023-01-10T07:27:55.285Z,11.20
2023-01-10T07:30:25.360Z,11.20
2023-01-10T07:32:58.832Z,10.50
2023-01-10T07:35:27.214Z,10.30
2023-01-10T07:37:55.484Z,9.80
2023-01-10T07:40:23.826Z,10.10
2023-01-10T07:42:56.680Z,10.40
2023-01-10T07:45:24.964Z,10.40
2023-01-10T07:47:53.212Z,10.20
2023-01-10T07:50:22.857Z,10.70
2023-01-10T07:52:51.320Z,10.60
2023-01-10T07:55:19.746Z,10.70
2023-01-10T07:57:48.057Z,11.10
2023-01-10T08:00:18.994Z,11.20
2023-01-10T08:02:47.728Z,11.10
2023-01-10T08:05:16.919Z,11.20
2023-01-10T08:07:46.642Z,11.10
2023-01-10T08:10:14.924Z,11.20
2023-01-10T08:12:43.218Z,11.20
2023-01-10T08:15:12.248Z,11.70
2023-01-10T08:17:41.090Z,11.70
2023-01-10T08:20:11.319Z,11.50
2023-01-10T08:22:39.531Z,11.20
2023-01-10T08:25:10.241Z,11.20
2023-01-10T08:27:38.633Z,11.30
2023-01-10T08:30:08.540Z,11.20
2023-01-10T08:32:36.822Z,9.70
2023-01-10T08:35:05.654Z,10.00
2023-01-10T08:37:35.092Z,9.00
2023-01-10T08:40:03.518Z,8.80
2023-01-10T08:42:33.159Z,9.40
2023-01-10T08:45:01.481Z,8.30
2023-01-10T08:47:29.801Z,8.20
2023-01-10T08:49:58.185Z,9.10
2023-01-10T08:52:26.452Z,8.00
2023-01-10T08:54:54.716Z,8.50
2023-01-10T08:57:22.987Z,7.30
2023-01-10T08:59:52.602Z,7.30
2023-01-10T09:02:20.930Z,7.30
2023-01-10T09:04:49.271Z,7.10
2023-01-10T09:07:17.578Z,7.40
2023-01-10T09:09:45.908Z,7.10
2023-01-10T09:12:31.732Z,4.80
2023-01-10T09:15:01.464Z,4.40
2023-01-10T09:17:29.818Z,3.20
2023-01-10T09:19:58.134Z,3.20
2023-01-10T09:22:27.317Z,4.10
2023-01-10T09:24:55.663Z,4.30
2023-01-10T09:27:23.953Z,4.60
2023-01-10T09:29:52.208Z,4.50
2023-01-10T09:32:21.833Z,3.30
2023-01-10T09:34:50.297Z,4.70
2023-01-10T09:37:18.854Z,3.50
2023-01-10T09:39:47.205Z,1.30
2023-01-10T09:42:28.179Z,1.00
2023-01-10T09:45:03.848Z,1.00
2023-01-10T09:47:38.526Z,1.00
2023-01-10T09:50:16.141Z,1.00
2023-01-10T09:52:46.492Z,1.00
2023-01-10T09:55:24.530Z,1.00
2023-01-10T09:57:53.875Z,1.00
2023-01-10T10:00:24.908Z,1.00
2023-01-10T10:02:54.657Z,1.00
2023-01-10T10:05:24.577Z,1.00
2023-01-10T10:07:56.076Z,1.00
2023-01-10T10:10:26.672Z,1.00
2023-01-10T10:13:05.956Z,1.00
2023-01-10T10:15:42.437Z,1.00
2023-01-10T10:18:20.100Z,1.00
2023-01-10T10:20:55.177Z,1.00
2023-01-10T10:24:03.343Z,1.00
2023-01-10T10:26:35.304Z,1.00
2023-01-10T10:29:43.523Z,1.00
2023-01-10T10:32:36.352Z,1.00
2023-01-10T10:35:09.961Z,1.00
2023-01-10T10:37:40.202Z,1.00
2023-01-10T10:40:15.598Z,1.00
2023-01-10T10:42:47.321Z,1.00
2023-01-10T10:45:19.521Z,1.00
2023-01-10T10:47:52.273Z,1.00
2023-01-10T10:50:26.697Z,1.00
2023-01-10T10:52:54.997Z,1.00
2023-01-10T10:55:30.437Z,1.00
2023-01-10T10:58:00.992Z,1.00
2023-01-10T11:00:29.910Z,1.00
2023-01-10T11:03:01.558Z,1.00
2023-01-10T11:05:36.605Z,1.00
2023-01-10T11:08:09.305Z,1.00
2023-01-10T11:10:38.490Z,1.00
2023-01-10T11:13:22.995Z,1.00
2023-01-10T11:15:51.832Z,1.00
2023-01-10T11:18:25.429Z,1.00
2023-01-10T11:20:58.835Z,1.00
2023-01-10T11:23:37.996Z,1.00
2023-01-10T11:26:06.578Z,1.00
2023-01-10T11:28:34.971Z,1.00
2023-01-10T11:31:03.273Z,1.00
2023-01-10T11:33:35.356Z,1.00
2023-01-10T11:36:07.024Z,1.00
2023-01-10T11:38:35.364Z,1.00
2023-01-10T11:41:04.701Z,1.00
2023-01-10T11:43:34.968Z,1.00
2023-01-10T11:46:04.998Z,1.00
2023-01-10T11:49:04.879Z,1.00
2023-01-10T11:51:38.054Z,1.00
2023-01-10T11:54:08.581Z,1.00
2023-01-10T11:56:37.498Z,1.00
2023-01-10T11:59:12.539Z,1.00
2023-01-10T12:01:42.677Z,1.00
2023-01-10T12:04:16.006Z,1.00
2023-01-10T12:06:47.090Z,1.00
2023-01-10T12:09:35.773Z,1.00
2023-01-10T12:12:05.070Z,1.00
2023-01-10T12:14:33.449Z,1.00
2023-01-10T12:17:02.058Z,1.00
2023-01-10T12:19:30.637Z,1.00
2023-01-10T12:22:04.224Z,1.00
2023-01-10T12:24:36.139Z,1.00
2023-01-10T12:27:04.952Z,1.00
2023-01-10T12:29:35.323Z,1.00
2023-01-10T12:32:04.349Z,1.00
2023-01-10T12:34:40.759Z,1.00
2023-01-10T12:37:17.824Z,1.00
2023-01-10T12:39:47.988Z,1.00
2023-01-10T12:42:41.430Z,1.00
2023-01-10T12:45:13.272Z,1.00
2023-01-10T12:47:56.513Z,1.00
2023-01-10T12:50:27.611Z,1.00
2023-01-10T12:53:01.957Z,1.00
2023-01-10T12:55:32.296Z,1.00
2023-01-10T12:58:02.843Z,1.00
2023-01-10T13:00:40.470Z,1.00
2023-01-10T13:03:18.194Z,1.00
2023-01-10T13:05:48.861Z,1.00
2023-01-10T13:08:20.309Z,1.00
2023-01-10T13:10:50.900Z,1.00
2023-01-10T13:13:23.727Z,1.00
2023-01-10T13:15:55.341Z,1.00
2023-01-10T13:18:26.838Z,1.00
2023-01-10T13:21:05.302Z,1.00
2023-01-10T13:23:35.245Z,1.00
2023-01-10T13:26:08.881Z,1.00
2023-01-10T13:28:38.393Z,1.00
2023-01-10T13:31:08.722Z,1.00
2023-01-10T13:33:50.201Z,1.00
2023-01-10T13:36:21.065Z,1.00
2023-01-10T13:38:52.613Z,1.00
2023-01-10T13:41:39.453Z,1.00
2023-01-10T13:44:11.160Z,1.00
2023-01-10T13:46:50.067Z,1.00
2023-01-10T13:49:44.396Z,1.00
2023-01-10T13:52:32.917Z,1.00
2023-01-10T13:55:05.038Z,1.00
2023-01-10T13:57:58.768Z,1.00
2023-01-10T14:01:13.719Z,1.00
2023-01-10T14:03:51.102Z,1.00
2023-01-10T14:06:41.182Z,1.00
2023-01-10T14:09:34.760Z,1.00
2023-01-10T14:12:05.849Z,1.00
2023-01-10T14:14:37.200Z,1.00
2023-01-10T14:17:16.593Z,1.00
2023-01-10T14:19:45.944Z,1.00
2023-01-10T14:22:27.573Z,1.00
2023-01-10T14:24:55.873Z,1.00
2023-01-10T14:27:25.586Z,1.00
2023-01-10T14:29:56.036Z,1.00
2023-01-10T14:32:34.143Z,1.00
2023-01-10T14:35:04.639Z,1.00
2023-01-10T14:37:37.617Z,1.00
2023-01-10T14:40:12.274Z,1.00
2023-01-10T14:42:42.024Z,1.00
2023-01-10T14:45:20.533Z,1.00
2023-01-10T14:47:49.659Z,1.00
2023-01-10T14:50:28.715Z,1.00
2023-01-10T14:52:57.260Z,1.00
2023-01-10T14:55:25.757Z,1.00
2023-01-10T14:57:59.845Z,1.00
2023-01-10T15:00:29.903Z,1.00
2023-01-10T15:02:59.147Z,1.00
2023-01-10T15:05:28.557Z,1.00
2023-01-10T15:07:57.367Z,1.00
2023-01-10T15:10:27.432Z,1.00
2023-01-10T15:13:02.007Z,1.00
2023-01-10T15:15:33.547Z,1.00
2023-01-10T15:18:03.760Z,1.00
2023-01-10T15:20:32.120Z,1.00
2023-01-10T15:23:02.334Z,1.00
2023-01-10T15:25:32.115Z,1.00
2023-01-10T15:28:02.938Z,1.00
2023-01-10T15:30:32.672Z,1.00
2023-01-10T15:33:04.126Z,1.00
2023-01-10T15:35:36.686Z,1.00
2023-01-10T15:38:07.331Z,1.00
2023-01-10T15:40:37.169Z,1.00
2023-01-10T15:43:25.061Z,1.00
2023-01-10T15:45:55.861Z,1.00
2023-01-10T15:48:29.578Z,1.00
2023-01-10T15:51:03.543Z,1.00
2023-01-10T15:53:57.386Z,1.00
2023-01-10T15:56:28.729Z,1.00
2023-01-10T15:58:58.686Z,1.00
2023-01-10T16:01:28.806Z,1.00
2023-01-10T16:03:58.569Z,1.00
2023-01-10T16:06:28.484Z,1.00
2023-01-10T16:08:58.724Z,1.00
2023-01-10T16:11:52.177Z,1.00
2023-01-10T16:14:21.908Z,1.00
2023-01-10T16:16:50.183Z,1.00
2023-01-10T16:19:18.513Z,1.00
2023-01-10T16:21:48.963Z,1.00
2023-01-10T16:24:22.083Z,1.00
2023-01-10T16:26:50.592Z,1.00
2023-01-10T16:29:20.489Z,1.00
2023-01-10T16:31:52.143Z,1.00
2023-01-10T16:34:20.718Z,1.00
2023-01-10T16:36:49.065Z,1.00
2023-01-10T16:39:18.758Z,1.00
2023-01-10T16:42:05.050Z,1.00
2023-01-10T16:44:33.748Z,1.00
2023-01-10T16:47:06.440Z,1.00
2023-01-10T16:49:35.119Z,1.00
2023-01-10T16:52:03.642Z,1.00
2023-01-10T16:54:35.385Z,1.00
2023-01-10T16:57:03.710Z,1.00
2023-01-10T16:59:31.989Z,1.00
2023-01-10T17:02:00.478Z,1.00
2023-01-10T17:04:32.729Z,1.00
2023-01-10T17:07:01.159Z,1.00
2023-01-10T17:09:31.170Z,1.00
2023-01-10T17:12:02.819Z,1.00
2023-01-10T17:14:31.541Z,1.00
2023-01-10T17:16:59.909Z,1.00
2023-01-10T17:19:29.529Z,1.00
2023-01-10T17:21:58.195Z,1.00
2023-01-10T17:24:27.045Z,1.00
2023-01-10T17:26:55.336Z,1.00
2023-01-10T17:29:23.655Z,1.00
2023-01-10T17:31:52.006Z,1.00
2023-01-10T17:34:20.592Z,1.00
2023-01-10T17:36:50.309Z,1.00
2023-01-10T17:39:18.591Z,1.00
2023-01-10T17:41:46.915Z,1.00
2023-01-10T17:44:15.203Z,1.00
2023-01-10T17:46:43.578Z,1.00
2023-01-10T17:49:13.377Z,1.00
2023-01-10T17:51:41.879Z,1.00
2023-01-10T17:54:11.557Z,1.00
2023-01-10T17:56:39.908Z,1.00
2023-01-10T17:59:08.235Z,1.00
2023-01-10T18:01:36.703Z,1.00
2023-01-10T18:04:05.295Z,1.00
2023-01-10T18:06:33.616Z,1.00
2023-01-10T18:09:02.226Z,1.00
2023-01-10T18:11:33.673Z,1.00
2023-01-10T18:14:22.687Z,1.00
2023-01-10T18:16:51.039Z,1.00
2023-01-10T18:19:19.380Z,1.00
2023-01-10T18:21:48.977Z,1.00
2023-01-10T18:24:17.338Z,1.00
2023-01-10T18:26:47.599Z,1.00
2023-01-10T18:29:15.856Z,1.00
2023-01-10T18:31:44.157Z,1.00
2023-01-10T18:34:12.474Z,1.00
2023-01-10T18:36:41.216Z,1.00
2023-01-10T18:39:09.502Z,1.00
2023-01-10T18:41:37.816Z,1.00
2023-01-10T18:44:07.581Z,1.00
2023-01-10T18:46:35.937Z,1.00
2023-01-10T18:49:04.244Z,1.00
2023-01-10T18:51:32.513Z,1.00
2023-01-10T18:54:01.084Z,1.00
2023-01-10T18:56:30.236Z,1.00
2023-01-10T18:58:59.460Z,1.00
2023-01-10T19:01:29.807Z,1.00
2023-01-10T19:03:59.004Z,1.00
2023-01-10T19:06:27.314Z,1.00
2023-01-10T19:08:55.607Z,1.00
2023-01-10T19:11:23.911Z,1.00
2023-01-10T19:13:53.970Z,1.00
2023-01-10T19:16:24.251Z,1.00
2023-01-10T19:18:55.727Z,1.00
2023-01-10T19:21:24.313Z,1.00
2023-01-10T19:23:55.014Z,1.00
2023-01-10T19:26:23.538Z,1.00
2023-01-10T19:28:51.867Z,1.00
2023-01-10T19:31:22.374Z,1.00
2023-01-10T19:33:50.760Z,1.00
2023-01-10T19:36:22.011Z,1.00
2023-01-10T19:38:54.074Z,1.00
2023-01-10T19:41:22.460Z,1.00
2023-01-10T19:43:56.712Z,1.00
2023-01-10T19:46:25.073Z,1.00
2023-01-10T19:48:53.426Z,1.00
2023-01-10T19:51:23.248Z,1.00
2023-01-10T19:53:51.500Z,1.00
2023-01-10T19:56:22.817Z,1.00
2023-01-10T19:58:51.313Z,1.00
2023-01-10T20:01:21.230Z,1.00
2023-01-10T20:03:49.601Z,1.00
2023-01-10T20:06:20.690Z,1.50
2023-01-10T20:08:50.601Z,1.50
2023-01-10T20:11:19.172Z,1.50
2023-01-10T20:13:49.238Z,1.50
2023-01-10T20:16:19.229Z,1.00
2023-01-10T20:18:47.899Z,1.00
2023-01-10T20:21:17.828Z,1.30
2023-01-10T20:23:46.413Z,1.40
2023-01-10T20:26:17.356Z,1.90
2023-01-10T20:28:47.302Z,2.30
2023-01-10T20:31:19.094Z,2.40
2023-01-10T20:33:47.706Z,2.40
2023-01-10T20:36:17.325Z,2.90
2023-01-10T20:38:45.691Z,2.60
2023-01-10T20:41:16.952Z,2.80
2023-01-10T20:43:45.359Z,2.70
2023-01-10T20:46:15.152Z,1.90
2023-01-10T20:48:43.596Z,1.90
2023-01-10T20:51:13.454Z,2.20
2023-01-10T20:53:41.768Z,2.40
2023-01-10T20:56:12.544Z,2.20
2023-01-10T20:58:42.176Z,2.30
2023-01-10T21:01:12.435Z,2.00
2023-01-10T21:03:43.620Z,2.40
2023-01-10T21:06:12.056Z,3.30
2023-01-10T21:08:40.376Z,4.50
2023-01-10T21:11:08.877Z,5.30
2023-01-10T21:13:37.231Z,5.40
2023-01-10T21:16:08.033Z,5.40
2023-01-10T21:18:40.941Z,5.40
2023-01-10T21:21:09.426Z,5.40
2023-01-10T21:23:38.300Z,5.30
2023-01-10T21:26:08.016Z,5.30
2023-01-10T21:28:37.660Z,5.40
2023-01-10T21:31:07.563Z,5.40
2023-01-10T21:33:35.925Z,5.30
2023-01-10T21:36:04.401Z,5.30
2023-01-10T21:38:32.801Z,5.40
2023-01-10T21:41:07.740Z,5.30
2023-01-10T21:43:36.102Z,5.30
2023-01-10T21:46:05.981Z,5.30
2023-01-10T21:48:34.317Z,5.30
2023-01-10T21:51:02.745Z,5.30
2023-01-10T21:53:31.052Z,6.00
2023-01-10T21:56:00.133Z,6.10
2023-01-10T21:58:28.538Z,5.80
2023-01-10T22:00:58.775Z,6.20
2023-01-10T22:03:30.871Z,5.50
2023-01-10T22:05:59.255Z,5.40
2023-01-10T22:08:27.561Z,5.40
2023-01-10T22:10:55.868Z,4.70
2023-01-10T22:13:26.250Z,4.10
2023-01-10T22:16:00.406Z,4.30
2023-01-10T22:18:31.077Z,3.70
2023-01-10T22:20:59.651Z,3.60
2023-01-10T22:23:29.193Z,3.20
2023-01-10T22:26:01.827Z,3.10
2023-01-10T22:28:30.269Z,4.00
2023-01-10T22:30:58.640Z,3.40
2023-01-10T22:33:30.390Z,3.40
2023-01-10T22:36:03.511Z,3.10
2023-01-10T22:38:32.719Z,2.80
2023-01-10T22:41:07.286Z,3.20
2023-01-10T22:43:35.707Z,3.30
2023-01-10T22:46:04.060Z,3.30
2023-01-10T22:48:33.861Z,3.20
2023-01-10T22:51:02.366Z,2.70
2023-01-10T22:53:30.721Z,2.30
2023-01-10T22:56:00.951Z,1.30
2023-01-10T22:58:29.252Z,1.10
2023-01-10T23:00:57.521Z,1.20
2023-01-10T23:03:25.831Z,1.00
2023-01-10T23:05:57.250Z,1.00
2023-01-10T23:08:25.635Z,1.00
2023-01-10T23:10:54.665Z,1.00
2023-01-10T23:13:23.133Z,1.00
2023-01-10T23:15:57.715Z,1.00
2023-01-10T23:18:26.149Z,1.00
2023-01-10T23:20:55.823Z,1.00
2023-01-10T23:23:24.279Z,1.00
2023-01-10T23:26:02.273Z,1.00
2023-01-10T23:28:31.327Z,1.00
2023-01-10T23:30:59.586Z,1.00
2023-01-10T23:33:27.973Z,1.00
2023-01-10T23:35:57.686Z,1.00
2023-01-10T23:38:26.096Z,1.00
2023-01-10T23:40:55.131Z,1.00
2023-01-10T23:43:23.499Z,1.00
2023-01-10T23:45:51.821Z,1.00
2023-01-10T23:48:20.207Z,1.00
2023-01-10T23:50:49.444Z,1.00
2023-01-10T23:53:20.410Z,1.00
2023-01-10T23:55:48.725Z,1.00
2023-01-10T23:58:17.051Z,1.00
